sensor_id;sensor_type;location;lat;lon;timestamp;pressure;altitude;pressure_sealevel;temperature;humidity
32251;BME280;41295;48.518;9.206;2023-03-15T00:00:23;96782.59;;;5.18;65.74
32251;BME280;41295;48.518;9.206;2023-03-15T00:02:27;96789.41;;;5.21;65.58
32251;BME280;41295;48.518;9.206;2023-03-15T00:04:30;96798.09;;;5.18;65.15
32251;BME280;41295;48.518;9.206;2023-03-15T00:06:33;96799.78;;;5.19;64.93
32251;BME280;41295;48.518;9.206;2023-03-15T00:08:36;96806.06;;;5.09;65.38
32251;BME280;41295;48.518;9.206;2023-03-15T00:10:39;96805.91;;;5.15;65.13
32251;BME280;41295;48.518;9.206;2023-03-15T00:12:43;96799.06;;;5.12;65.42
32251;BME280;41295;48.518;9.206;2023-03-15T00:14:45;96797.31;;;5.14;65.39
32251;BME280;41295;48.518;9.206;2023-03-15T00:16:48;96796.09;;;5.29;64.26
32251;BME280;41295;48.518;9.206;2023-03-15T00:18:53;96800.53;;;5.24;65.13
32251;BME280;41295;48.518;9.206;2023-03-15T00:20:56;96806.28;;;5.36;64.87
32251;BME280;41295;48.518;9.206;2023-03-15T00:22:58;96806.47;;;5.28;64.69
32251;BME280;41295;48.518;9.206;2023-03-15T00:25:01;96815.22;;;5.22;65.56
32251;BME280;41295;48.518;9.206;2023-03-15T00:27:04;96820.47;;;5.19;65.41
32251;BME280;41295;48.518;9.206;2023-03-15T00:29:06;96821.28;;;5.21;64.39
32251;BME280;41295;48.518;9.206;2023-03-15T00:31:13;96835.97;;;5.19;64.92
32251;BME280;41295;48.518;9.206;2023-03-15T00:33:16;96844.53;;;5.21;65.38
32251;BME280;41295;48.518;9.206;2023-03-15T00:35:20;96852.31;;;5.21;65.65
32251;BME280;41295;48.518;9.206;2023-03-15T00:37:24;96859.16;;;5.22;65.88
32251;BME280;41295;48.518;9.206;2023-03-15T00:39:26;96859.34;;;5.13;65.38
32251;BME280;41295;48.518;9.206;2023-03-15T00:41:29;96865.53;;;5.07;65.39
32251;BME280;41295;48.518;9.206;2023-03-15T00:43:33;96869.84;;;5.07;65.38
32251;BME280;41295;48.518;9.206;2023-03-15T00:45:36;96881.88;;;5.09;65.30
32251;BME280;41295;48.518;9.206;2023-03-15T00:47:40;96875.84;;;5.09;65.38
32251;BME280;41295;48.518;9.206;2023-03-15T00:49:42;96880.09;;;5.10;65.29
32251;BME280;41295;48.518;9.206;2023-03-15T00:51:47;96884.41;;;5.11;65.78
32251;BME280;41295;48.518;9.206;2023-03-15T00:53:51;96892.16;;;5.11;65.80
32251;BME280;41295;48.518;9.206;2023-03-15T00:55:54;96887.91;;;5.08;65.29
32251;BME280;41295;48.518;9.206;2023-03-15T00:57:57;96902.59;;;5.06;64.95
32251;BME280;41295;48.518;9.206;2023-03-15T01:00:00;96899.97;;;5.08;64.95
32251;BME280;41295;48.518;9.206;2023-03-15T01:02:07;96899.97;;;5.08;65.07
32251;BME280;41295;48.518;9.206;2023-03-15T01:04:10;96901.69;;;5.09;64.97
32251;BME280;41295;48.518;9.206;2023-03-15T01:06:15;96900.81;;;5.08;65.28
32251;BME280;41295;48.518;9.206;2023-03-15T01:08:20;96898.19;;;5.10;65.10
32251;BME280;41295;48.518;9.206;2023-03-15T01:10:24;96903.41;;;5.08;65.16
32251;BME280;41295;48.518;9.206;2023-03-15T01:12:27;96907.63;;;5.12;65.23
32251;BME280;41295;48.518;9.206;2023-03-15T01:14:29;96907.63;;;5.12;65.21
32251;BME280;41295;48.518;9.206;2023-03-15T01:16:32;96908.47;;;5.13;65.13
32251;BME280;41295;48.518;9.206;2023-03-15T01:18:35;96912.66;;;5.18;64.85
32251;BME280;41295;48.518;9.206;2023-03-15T01:20:41;96917.78;;;5.20;64.80
32251;BME280;41295;48.518;9.206;2023-03-15T01:22:44;96923.81;;;5.21;65.16
32251;BME280;41295;48.518;9.206;2023-03-15T01:24:48;96929.00;;;5.21;65.16
32251;BME280;41295;48.518;9.206;2023-03-15T01:26:50;96933.28;;;5.22;64.86
32251;BME280;41295;48.518;9.206;2023-03-15T01:28:53;96929.03;;;5.19;65.06
32251;BME280;41295;48.518;9.206;2023-03-15T01:30:56;96937.31;;;5.35;63.61
32251;BME280;41295;48.518;9.206;2023-03-15T01:33:00;96940.22;;;5.20;64.39
32251;BME280;41295;48.518;9.206;2023-03-15T01:35:03;96941.16;;;5.15;64.47
32251;BME280;41295;48.518;9.206;2023-03-15T01:37:06;96952.41;;;5.13;64.76
32251;BME280;41295;48.518;9.206;2023-03-15T01:39:08;96943.03;;;5.09;64.75
32251;BME280;41295;48.518;9.206;2023-03-15T01:41:13;96949.91;;;5.10;64.54
32251;BME280;41295;48.518;9.206;2023-03-15T01:43:17;96948.22;;;5.09;64.75
32251;BME280;41295;48.518;9.206;2023-03-15T01:45:52;96953.38;;;5.09;64.35
32251;BME280;41295;48.518;9.206;2023-03-15T01:47:54;96958.63;;;5.05;64.76
32251;BME280;41295;48.518;9.206;2023-03-15T01:50:00;96961.88;;;5.14;64.12
32251;BME280;41295;48.518;9.206;2023-03-15T01:52:05;96971.44;;;5.10;65.01
32251;BME280;41295;48.518;9.206;2023-03-15T01:54:17;96965.47;;;5.07;64.57
32251;BME280;41295;48.518;9.206;2023-03-15T01:56:23;96968.81;;;5.12;64.43
32251;BME280;41295;48.518;9.206;2023-03-15T01:58:26;96965.31;;;5.14;64.21
32251;BME280;41295;48.518;9.206;2023-03-15T02:00:29;96967.13;;;5.11;63.58
32251;BME280;41295;48.518;9.206;2023-03-15T02:02:32;96971.56;;;5.02;64.30
32251;BME280;41295;48.518;9.206;2023-03-15T02:04:37;96960.56;;;4.94;64.10
32251;BME280;41295;48.518;9.206;2023-03-15T02:06:42;96962.41;;;4.87;64.98
32251;BME280;41295;48.518;9.206;2023-03-15T02:08:49;96961.47;;;4.90;65.11
32251;BME280;41295;48.518;9.206;2023-03-15T02:10:55;96972.66;;;4.92;64.98
32251;BME280;41295;48.518;9.206;2023-03-15T02:13:01;96979.63;;;4.87;65.06
32251;BME280;41295;48.518;9.206;2023-03-15T02:15:05;96981.47;;;4.81;65.49
32251;BME280;41295;48.518;9.206;2023-03-15T02:17:09;96978.03;;;4.81;65.30
32251;BME280;41295;48.518;9.206;2023-03-15T02:19:25;96974.59;;;4.79;65.54
32251;BME280;41295;48.518;9.206;2023-03-15T02:21:41;96985.78;;;4.81;65.02
32251;BME280;41295;48.518;9.206;2023-03-15T02:23:53;96987.53;;;4.80;64.87
32251;BME280;41295;48.518;9.206;2023-03-15T02:26:06;96987.59;;;4.76;64.71
32251;BME280;41295;48.518;9.206;2023-03-15T02:28:13;96995.41;;;4.73;65.11
32251;BME280;41295;48.518;9.206;2023-03-15T02:30:17;96994.59;;;4.69;64.88
32251;BME280;41295;48.518;9.206;2023-03-15T02:32:20;96997.31;;;4.63;64.87
32251;BME280;41295;48.518;9.206;2023-03-15T02:34:22;96996.47;;;4.62;64.54
32251;BME280;41295;48.518;9.206;2023-03-15T02:36:27;97004.03;;;4.70;64.59
32251;BME280;41295;48.518;9.206;2023-03-15T02:38:32;97003.28;;;4.65;63.85
32251;BME280;41295;48.518;9.206;2023-03-15T02:40:34;97013.03;;;4.49;64.37
32251;BME280;41295;48.518;9.206;2023-03-15T02:42:37;97007.78;;;4.55;64.69
32251;BME280;41295;48.518;9.206;2023-03-15T02:44:43;97016.56;;;4.44;64.53
32251;BME280;41295;48.518;9.206;2023-03-15T02:46:48;97013.13;;;4.44;64.19
32251;BME280;41295;48.518;9.206;2023-03-15T02:48:52;97019.09;;;4.48;64.72
32251;BME280;41295;48.518;9.206;2023-03-15T02:50:55;97020.28;;;4.28;64.77
32251;BME280;41295;48.518;9.206;2023-03-15T02:52:57;97019.50;;;4.23;64.71
32251;BME280;41295;48.518;9.206;2023-03-15T02:55:00;97020.22;;;4.31;64.97
32251;BME280;41295;48.518;9.206;2023-03-15T02:57:03;97024.66;;;4.23;65.04
32251;BME280;41295;48.518;9.206;2023-03-15T02:59:06;97028.72;;;4.36;64.75
32251;BME280;41295;48.518;9.206;2023-03-15T03:01:10;97030.41;;;4.40;64.22
32251;BME280;41295;48.518;9.206;2023-03-15T03:03:13;97035.88;;;4.21;64.65
32251;BME280;41295;48.518;9.206;2023-03-15T03:05:17;97036.88;;;4.11;65.10
32251;BME280;41295;48.518;9.206;2023-03-15T03:07:19;97043.72;;;4.14;65.34
32251;BME280;41295;48.518;9.206;2023-03-15T03:09:22;97048.84;;;4.17;65.24
32251;BME280;41295;48.518;9.206;2023-03-15T03:11:25;97055.78;;;4.12;64.57
32251;BME280;41295;48.518;9.206;2023-03-15T03:13:28;97050.53;;;4.19;64.90
32251;BME280;41295;48.518;9.206;2023-03-15T03:15:30;97055.03;;;4.05;65.22
32251;BME280;41295;48.518;9.206;2023-03-15T03:17:34;97058.38;;;4.12;64.76
32251;BME280;41295;48.518;9.206;2023-03-15T03:19:37;97065.38;;;4.05;64.41
32251;BME280;41295;48.518;9.206;2023-03-15T03:21:40;97058.38;;;4.12;64.39
32251;BME280;41295;48.518;9.206;2023-03-15T03:23:43;97065.38;;;4.03;64.87
32251;BME280;41295;48.518;9.206;2023-03-15T03:25:46;97067.88;;;4.09;64.29
32251;BME280;41295;48.518;9.206;2023-03-15T03:27:49;97080.16;;;3.92;64.83
32251;BME280;41295;48.518;9.206;2023-03-15T03:29:51;97087.13;;;3.87;64.87
32251;BME280;41295;48.518;9.206;2023-03-15T03:31:54;97092.34;;;3.82;65.52
32251;BME280;41295;48.518;9.206;2023-03-15T03:33:58;97094.00;;;3.86;65.56
32251;BME280;41295;48.518;9.206;2023-03-15T03:36:01;97094.94;;;3.82;65.37
32251;BME280;41295;48.518;9.206;2023-03-15T03:38:04;97097.38;;;3.93;65.24
32251;BME280;41295;48.518;9.206;2023-03-15T03:40:08;97104.25;;;3.91;65.10
32251;BME280;41295;48.518;9.206;2023-03-15T03:42:12;97103.31;;;3.98;64.69
32251;BME280;41295;48.518;9.206;2023-03-15T03:44:14;97101.28;;;4.19;63.04
32251;BME280;41295;48.518;9.206;2023-03-15T03:46:17;97102.91;;;4.26;62.53
32251;BME280;41295;48.518;9.206;2023-03-15T03:48:20;97101.22;;;4.22;62.65
32251;BME280;41295;48.518;9.206;2023-03-15T03:50:24;97105.69;;;4.12;63.14
32251;BME280;41295;48.518;9.206;2023-03-15T03:52:26;97116.16;;;4.01;62.88
32251;BME280;41295;48.518;9.206;2023-03-15T03:54:29;97123.97;;;3.95;63.21
32251;BME280;41295;48.518;9.206;2023-03-15T03:56:33;97116.50;;;3.76;63.99
32251;BME280;41295;48.518;9.206;2023-03-15T03:58:36;97123.44;;;3.71;64.41
32251;BME280;41295;48.518;9.206;2023-03-15T04:00:39;97122.53;;;3.75;65.06
32251;BME280;41295;48.518;9.206;2023-03-15T04:02:42;97127.72;;;3.72;64.75
32251;BME280;41295;48.518;9.206;2023-03-15T04:04:45;97127.75;;;3.69;64.97
32251;BME280;41295;48.518;9.206;2023-03-15T04:06:51;97130.53;;;3.53;65.08
32251;BME280;41295;48.518;9.206;2023-03-15T04:08:54;97131.41;;;3.49;65.74
32251;BME280;41295;48.518;9.206;2023-03-15T04:10:57;97143.44;;;3.50;65.57
32251;BME280;41295;48.518;9.206;2023-03-15T04:13:00;97137.41;;;3.51;65.16
32251;BME280;41295;48.518;9.206;2023-03-15T04:15:04;97133.13;;;3.50;65.73
32251;BME280;41295;48.518;9.206;2023-03-15T04:17:07;97137.47;;;3.48;65.10
32251;BME280;41295;48.518;9.206;2023-03-15T04:19:10;97139.25;;;3.43;65.25
32251;BME280;41295;48.518;9.206;2023-03-15T04:21:13;97142.66;;;3.42;65.21
32251;BME280;41295;48.518;9.206;2023-03-15T04:23:17;97149.59;;;3.36;65.67
32251;BME280;41295;48.518;9.206;2023-03-15T04:25:20;97150.28;;;3.53;64.85
32251;BME280;41295;48.518;9.206;2023-03-15T04:27:27;97144.25;;;3.55;64.20
32251;BME280;41295;48.518;9.206;2023-03-15T04:29:29;97144.25;;;3.55;65.46
32251;BME280;41295;48.518;9.206;2023-03-15T04:31:32;97153.31;;;3.86;63.31
32251;BME280;41295;48.518;9.206;2023-03-15T04:33:38;97158.41;;;3.92;63.73
32251;BME280;41295;48.518;9.206;2023-03-15T04:35:40;97160.22;;;3.87;63.64
32251;BME280;41295;48.518;9.206;2023-03-15T04:37:43;97161.28;;;3.69;64.16
32251;BME280;41295;48.518;9.206;2023-03-15T04:39:47;97164.78;;;3.63;64.18
32251;BME280;41295;48.518;9.206;2023-03-15T04:41:52;97168.34;;;3.53;64.80
32251;BME280;41295;48.518;9.206;2023-03-15T04:43:55;97164.75;;;3.68;64.17
32251;BME280;41295;48.518;9.206;2023-03-15T04:45:58;97165.59;;;3.67;64.37
32251;BME280;41295;48.518;9.206;2023-03-15T04:48:02;97174.38;;;3.52;64.53
32251;BME280;41295;48.518;9.206;2023-03-15T04:50:05;97178.63;;;3.54;64.13
32251;BME280;41295;48.518;9.206;2023-03-15T04:52:08;97183.88;;;3.45;64.71
32251;BME280;41295;48.518;9.206;2023-03-15T04:54:10;97181.28;;;3.48;64.72
32251;BME280;41295;48.518;9.206;2023-03-15T04:56:14;97188.94;;;3.54;65.12
32251;BME280;41295;48.518;9.206;2023-03-15T04:58:18;97188.19;;;3.46;64.81
32251;BME280;41295;48.518;9.206;2023-03-15T05:00:20;97190.88;;;3.35;65.95
32251;BME280;41295;48.518;9.206;2023-03-15T05:02:23;97188.41;;;3.22;65.60
32251;BME280;41295;48.518;9.206;2023-03-15T05:04:26;97185.00;;;3.19;65.95
32251;BME280;41295;48.518;9.206;2023-03-15T05:06:28;97185.72;;;3.35;65.54
32251;BME280;41295;48.518;9.206;2023-03-15T05:08:31;97188.38;;;3.24;66.07
32251;BME280;41295;48.518;9.206;2023-03-15T05:10:35;97186.63;;;3.29;65.76
32251;BME280;41295;48.518;9.206;2023-03-15T05:12:39;97191.88;;;3.20;65.81
32251;BME280;41295;48.518;9.206;2023-03-15T05:14:42;97184.97;;;3.20;65.78
32251;BME280;41295;48.518;9.206;2023-03-15T05:16:45;97191.91;;;3.15;66.48
32251;BME280;41295;48.518;9.206;2023-03-15T05:18:48;97185.88;;;3.15;65.96
32251;BME280;41295;48.518;9.206;2023-03-15T05:20:52;97189.22;;;3.28;66.39
32251;BME280;41295;48.518;9.206;2023-03-15T05:22:56;97190.19;;;3.16;66.18
32251;BME280;41295;48.518;9.206;2023-03-15T05:24:59;97190.94;;;3.25;65.87
32251;BME280;41295;48.518;9.206;2023-03-15T05:27:01;97194.47;;;3.17;66.09
32251;BME280;41295;48.518;9.206;2023-03-15T05:29:06;97188.50;;;3.11;66.51
32251;BME280;41295;48.518;9.206;2023-03-15T05:31:08;97184.16;;;3.15;66.38
32251;BME280;41295;48.518;9.206;2023-03-15T05:33:11;97192.72;;;3.20;65.64
32251;BME280;41295;48.518;9.206;2023-03-15T05:35:14;97186.81;;;3.10;66.18
32251;BME280;41295;48.518;9.206;2023-03-15T05:37:17;97198.03;;;3.03;66.84
32251;BME280;41295;48.518;9.206;2023-03-15T05:39:19;97199.81;;;2.96;66.57
32251;BME280;41295;48.518;9.206;2023-03-15T05:41:23;97201.56;;;2.91;66.67
32251;BME280;41295;48.518;9.206;2023-03-15T05:43:25;97204.03;;;3.02;66.79
32251;BME280;41295;48.518;9.206;2023-03-15T05:45:29;97211.78;;;2.99;66.66
32251;BME280;41295;48.518;9.206;2023-03-15T05:47:32;97216.16;;;2.92;66.45
32251;BME280;41295;48.518;9.206;2023-03-15T05:49:34;97206.72;;;2.91;66.45
32251;BME280;41295;48.518;9.206;2023-03-15T05:51:37;97210.94;;;2.97;66.32
32251;BME280;41295;48.518;9.206;2023-03-15T05:53:40;97211.03;;;2.86;67.31
32251;BME280;41295;48.518;9.206;2023-03-15T05:55:44;97212.69;;;2.93;66.90
32251;BME280;41295;48.518;9.206;2023-03-15T05:57:47;97208.47;;;2.83;66.83
32251;BME280;41295;48.518;9.206;2023-03-15T05:59:49;97215.34;;;2.84;67.40
32251;BME280;41295;48.518;9.206;2023-03-15T06:01:55;97208.44;;;2.91;67.05
32251;BME280;41295;48.518;9.206;2023-03-15T06:03:58;97211.03;;;2.86;67.03
32251;BME280;41295;48.518;9.206;2023-03-15T06:06:01;97212.78;;;2.84;67.48
32251;BME280;41295;48.518;9.206;2023-03-15T06:08:05;97213.63;;;2.83;67.14
32251;BME280;41295;48.518;9.206;2023-03-15T06:10:08;97223.09;;;2.79;67.60
32251;BME280;41295;48.518;9.206;2023-03-15T06:12:12;97213.69;;;2.76;67.22
32251;BME280;41295;48.518;9.206;2023-03-15T06:14:15;97207.66;;;2.79;67.78
32251;BME280;41295;48.518;9.206;2023-03-15T06:16:17;97216.19;;;2.84;67.25
32251;BME280;41295;48.518;9.206;2023-03-15T06:18:21;97217.03;;;2.88;67.51
32251;BME280;41295;48.518;9.206;2023-03-15T06:20:24;97226.44;;;2.94;67.18
32251;BME280;41295;48.518;9.206;2023-03-15T06:22:26;97218.66;;;2.97;67.02
32251;BME280;41295;48.518;9.206;2023-03-15T06:24:29;97225.50;;;3.03;66.91
32251;BME280;41295;48.518;9.206;2023-03-15T06:26:32;97222.03;;;3.08;66.85
32251;BME280;41295;48.518;9.206;2023-03-15T06:28:34;97224.59;;;3.08;66.40
32251;BME280;41295;48.518;9.206;2023-03-15T06:30:37;97229.59;;;3.29;66.70
32251;BME280;41295;48.518;9.206;2023-03-15T06:32:41;97226.25;;;3.17;66.09
32251;BME280;41295;48.518;9.206;2023-03-15T06:34:45;97242.56;;;3.15;66.76
32251;BME280;41295;48.518;9.206;2023-03-15T06:36:48;97232.28;;;3.16;66.73
32251;BME280;41295;48.518;9.206;2023-03-15T06:38:52;97246.78;;;3.28;67.04
32251;BME280;41295;48.518;9.206;2023-03-15T06:40:55;97243.34;;;3.26;66.18
32251;BME280;41295;48.518;9.206;2023-03-15T06:42:59;97244.22;;;3.25;66.16
32251;BME280;41295;48.518;9.206;2023-03-15T06:45:07;97244.22;;;3.27;66.41
32251;BME280;41295;48.518;9.206;2023-03-15T06:47:10;97240.78;;;3.26;66.16
32251;BME280;41295;48.518;9.206;2023-03-15T06:49:13;97256.19;;;3.32;66.93
32251;BME280;41295;48.518;9.206;2023-03-15T06:51:17;97253.53;;;3.42;66.57
32251;BME280;41295;48.518;9.206;2023-03-15T06:53:20;97251.69;;;3.53;66.08
32251;BME280;41295;48.518;9.206;2023-03-15T06:55:22;97250.91;;;3.48;65.90
32251;BME280;41295;48.518;9.206;2023-03-15T06:57:25;97252.56;;;3.55;65.10
32251;BME280;41295;48.518;9.206;2023-03-15T06:59:27;97255.81;;;3.70;64.75
32251;BME280;41295;48.518;9.206;2023-03-15T07:01:30;97259.34;;;3.61;64.68
32251;BME280;41295;48.518;9.206;2023-03-15T07:03:33;97265.28;;;3.71;64.32
32251;BME280;41295;48.518;9.206;2023-03-15T07:05:35;97255.63;;;3.89;62.99
32251;BME280;41295;48.518;9.206;2023-03-15T07:07:39;97260.13;;;3.71;63.21
32251;BME280;41295;48.518;9.206;2023-03-15T07:09:42;97269.53;;;3.77;63.74
32251;BME280;41295;48.518;9.206;2023-03-15T07:11:45;97266.13;;;3.73;64.14
32251;BME280;41295;48.518;9.206;2023-03-15T07:13:47;97266.13;;;3.70;64.43
32251;BME280;41295;48.518;9.206;2023-03-15T07:15:51;97267.66;;;3.88;62.43
32251;BME280;41295;48.518;9.206;2023-03-15T07:17:54;97259.13;;;3.83;62.74
32251;BME280;41295;48.518;9.206;2023-03-15T07:19:56;97263.19;;;4.04;62.07
32251;BME280;41295;48.518;9.206;2023-03-15T07:21:59;97261.34;;;4.16;61.61
32251;BME280;41295;48.518;9.206;2023-03-15T07:24:03;97260.63;;;4.03;61.50
32251;BME280;41295;48.518;9.206;2023-03-15T07:26:06;97267.56;;;3.99;61.16
32251;BME280;41295;48.518;9.206;2023-03-15T07:28:09;97266.72;;;4.00;61.22
32251;BME280;41295;48.518;9.206;2023-03-15T07:30:12;97272.75;;;3.96;61.12
32251;BME280;41295;48.518;9.206;2023-03-15T07:32:15;97273.34;;;4.18;60.94
32251;BME280;41295;48.518;9.206;2023-03-15T07:34:17;97270.03;;;4.10;60.02
32251;BME280;41295;48.518;9.206;2023-03-15T07:36:20;97276.88;;;4.14;60.47
32251;BME280;41295;48.518;9.206;2023-03-15T07:38:24;97276.78;;;4.20;59.89
32251;BME280;41295;48.518;9.206;2023-03-15T07:40:30;97281.06;;;4.20;59.05
32251;BME280;41295;48.518;9.206;2023-03-15T07:42:35;97278.53;;;4.18;59.38
32251;BME280;41295;48.518;9.206;2023-03-15T07:44:38;97277.69;;;4.16;59.35
32251;BME280;41295;48.518;9.206;2023-03-15T07:46:40;97281.06;;;4.20;59.28
32251;BME280;41295;48.518;9.206;2023-03-15T07:48:43;97279.22;;;4.33;58.68
32251;BME280;41295;48.518;9.206;2023-03-15T07:50:46;97280.06;;;4.33;58.45
32251;BME280;41295;48.518;9.206;2023-03-15T07:52:48;97283.31;;;4.50;58.59
32251;BME280;41295;48.518;9.206;2023-03-15T07:54:51;97285.97;;;4.43;58.40
32251;BME280;41295;48.518;9.206;2023-03-15T07:56:55;97282.41;;;4.52;57.36
32251;BME280;41295;48.518;9.206;2023-03-15T07:58:58;97286.84;;;4.42;57.78
32251;BME280;41295;48.518;9.206;2023-03-15T08:01:00;97292.56;;;4.65;56.04
32251;BME280;41295;48.518;9.206;2023-03-15T08:03:03;97284.97;;;4.55;55.96
32251;BME280;41295;48.518;9.206;2023-03-15T08:05:07;97288.38;;;4.56;56.80
32251;BME280;41295;48.518;9.206;2023-03-15T08:07:10;97288.47;;;4.51;57.31
32251;BME280;41295;48.518;9.206;2023-03-15T08:09:13;97305.63;;;4.55;57.25
32251;BME280;41295;48.518;9.206;2023-03-15T08:11:15;97291.88;;;4.53;56.76
32251;BME280;41295;48.518;9.206;2023-03-15T08:13:19;97290.78;;;4.72;56.97
32251;BME280;41295;48.518;9.206;2023-03-15T08:15:22;97300.91;;;4.86;57.22
32251;BME280;41295;48.518;9.206;2023-03-15T08:17:24;97292.03;;;5.05;54.96
32251;BME280;41295;48.518;9.206;2023-03-15T08:19:27;97293.81;;;4.99;54.70
32251;BME280;41295;48.518;9.206;2023-03-15T08:21:29;97294.59;;;5.07;53.55
32251;BME280;41295;48.518;9.206;2023-03-15T08:23:33;97302.34;;;5.07;54.11
32251;BME280;41295;48.518;9.206;2023-03-15T08:25:36;97286.84;;;5.07;53.94
32251;BME280;41295;48.518;9.206;2023-03-15T08:27:41;97293.00;;;4.98;55.70
32251;BME280;41295;48.518;9.206;2023-03-15T08:29:45;97293.69;;;5.08;54.56
32251;BME280;41295;48.518;9.206;2023-03-15T08:31:48;97297.16;;;5.07;53.85
32251;BME280;41295;48.518;9.206;2023-03-15T08:33:51;97293.81;;;4.99;55.20
32251;BME280;41295;48.518;9.206;2023-03-15T08:35:53;97289.47;;;5.02;54.31
32251;BME280;41295;48.518;9.206;2023-03-15T08:37:56;97292.16;;;4.96;54.95
32251;BME280;41295;48.518;9.206;2023-03-15T08:39:59;97286.03;;;5.03;54.68
32251;BME280;41295;48.518;9.206;2023-03-15T08:42:06;97298.69;;;5.21;52.46
32251;BME280;41295;48.518;9.206;2023-03-15T08:44:08;97296.19;;;5.13;54.01
32251;BME280;41295;48.518;9.206;2023-03-15T08:46:12;97293.56;;;5.17;53.48
32251;BME280;41295;48.518;9.206;2023-03-15T08:48:15;97302.81;;;5.31;53.48
32251;BME280;41295;48.518;9.206;2023-03-15T08:50:18;97281.22;;;5.35;52.95
32251;BME280;41295;48.518;9.206;2023-03-15T08:52:21;97289.88;;;5.31;53.02
32251;BME280;41295;48.518;9.206;2023-03-15T08:54:24;97292.44;;;5.33;51.85
32251;BME280;41295;48.518;9.206;2023-03-15T08:56:27;97297.63;;;5.33;52.50
32251;BME280;41295;48.518;9.206;2023-03-15T08:58:30;97297.22;;;5.58;49.89
32251;BME280;41295;48.518;9.206;2023-03-15T09:00:32;97288.22;;;5.28;50.90
32251;BME280;41295;48.518;9.206;2023-03-15T09:02:36;97285.25;;;5.50;52.44
32251;BME280;41295;48.518;9.206;2023-03-15T09:04:39;97284.97;;;5.68;50.25
32251;BME280;41295;48.518;9.206;2023-03-15T09:06:42;97299.00;;;5.56;51.05
32251;BME280;41295;48.518;9.206;2023-03-15T09:08:44;97288.63;;;5.57;51.08
32251;BME280;41295;48.518;9.206;2023-03-15T09:10:47;97299.78;;;5.59;52.06
32251;BME280;41295;48.518;9.206;2023-03-15T09:12:51;97291.47;;;5.40;52.39
32251;BME280;41295;48.518;9.206;2023-03-15T09:14:54;97313.50;;;5.63;51.20
32251;BME280;41295;48.518;9.206;2023-03-15T09:16:57;97299.00;;;5.54;50.00
32251;BME280;41295;48.518;9.206;2023-03-15T09:19:01;97310.91;;;5.64;50.26
32251;BME280;41295;48.518;9.206;2023-03-15T09:21:04;97302.22;;;5.67;50.47
32251;BME280;41295;48.518;9.206;2023-03-15T09:23:07;97305.75;;;5.63;50.28
32251;BME280;41295;48.518;9.206;2023-03-15T09:25:09;97313.47;;;5.66;51.13
32251;BME280;41295;48.518;9.206;2023-03-15T09:27:12;97313.69;;;5.53;51.29
32251;BME280;41295;48.518;9.206;2023-03-15T09:29:15;97319.41;;;5.71;50.68
32251;BME280;41295;48.518;9.206;2023-03-15T09:31:17;97322.97;;;5.65;51.77
32251;BME280;41295;48.518;9.206;2023-03-15T09:33:20;97310.81;;;5.69;51.39
32251;BME280;41295;48.518;9.206;2023-03-15T09:35:24;97313.50;;;5.64;52.35
32251;BME280;41295;48.518;9.206;2023-03-15T09:37:27;97322.88;;;5.70;52.91
32251;BME280;41295;48.518;9.206;2023-03-15T09:39:29;97322.59;;;5.87;52.21
32251;BME280;41295;48.518;9.206;2023-03-15T09:41:40;97332.84;;;5.92;53.37
32251;BME280;41295;48.518;9.206;2023-03-15T09:43:57;97329.88;;;6.16;49.10
32251;BME280;41295;48.518;9.206;2023-03-15T09:46:12;97333.22;;;6.21;48.16
32251;BME280;41295;48.518;9.206;2023-03-15T09:48:24;97330.88;;;6.08;47.34
32251;BME280;41295;48.518;9.206;2023-03-15T09:50:31;97329.19;;;6.06;47.91
32251;BME280;41295;48.518;9.206;2023-03-15T09:52:40;97328.81;;;6.26;47.31
32251;BME280;41295;48.518;9.206;2023-03-15T09:54:50;97330.63;;;6.21;47.95
32251;BME280;41295;48.518;9.206;2023-03-15T09:56:56;97329.59;;;6.30;47.26
32251;BME280;41295;48.518;9.206;2023-03-15T09:59:03;97335.84;;;6.19;47.78
32251;BME280;41295;48.518;9.206;2023-03-15T10:01:10;97337.72;;;6.12;48.78
32251;BME280;41295;48.518;9.206;2023-03-15T10:03:18;97341.13;;;6.13;49.47
32251;BME280;41295;48.518;9.206;2023-03-15T10:05:36;97335.94;;;6.15;49.81
32251;BME280;41295;48.518;9.206;2023-03-15T10:07:40;97330.69;;;6.19;50.08
32251;BME280;41295;48.518;9.206;2023-03-15T10:09:44;97346.88;;;6.29;50.17
32251;BME280;41295;48.518;9.206;2023-03-15T10:11:55;97334.84;;;6.27;48.44
32251;BME280;41295;48.518;9.206;2023-03-15T10:14:13;97328.72;;;6.31;49.27
32251;BME280;41295;48.518;9.206;2023-03-15T10:16:26;97332.34;;;6.23;48.85
32251;BME280;41295;48.518;9.206;2023-03-15T10:18:41;97335.50;;;6.36;49.28
32251;BME280;41295;48.518;9.206;2023-03-15T10:20:54;97318.72;;;6.12;50.12
32251;BME280;41295;48.518;9.206;2023-03-15T10:23:03;97330.91;;;6.07;50.43
32251;BME280;41295;48.518;9.206;2023-03-15T10:25:13;97335.16;;;6.09;50.26
32251;BME280;41295;48.518;9.206;2023-03-15T10:27:20;97325.38;;;6.25;49.36
32251;BME280;41295;48.518;9.206;2023-03-15T10:29:25;97329.03;;;6.13;50.22
32251;BME280;41295;48.518;9.206;2023-03-15T10:31:33;97329.09;;;6.12;49.85
32251;BME280;41295;48.518;9.206;2023-03-15T10:33:46;97329.09;;;6.12;49.99
32251;BME280;41295;48.518;9.206;2023-03-15T10:35:51;97327.16;;;6.23;49.41
32251;BME280;41295;48.518;9.206;2023-03-15T10:38:13;97321.53;;;6.45;48.14
32251;BME280;41295;48.518;9.206;2023-03-15T10:40:37;97319.72;;;6.49;48.64
32251;BME280;41295;48.518;9.206;2023-03-15T10:42:41;97320.72;;;6.42;49.41
32251;BME280;41295;48.518;9.206;2023-03-15T10:44:44;97322.47;;;6.43;48.98
32251;BME280;41295;48.518;9.206;2023-03-15T10:47:02;97317.25;;;6.44;49.79
32251;BME280;41295;48.518;9.206;2023-03-15T10:49:31;97319.44;;;6.65;47.81
32251;BME280;41295;48.518;9.206;2023-03-15T10:51:39;97313.47;;;6.59;47.95
32251;BME280;41295;48.518;9.206;2023-03-15T10:53:51;97328.13;;;6.62;46.71
32251;BME280;41295;48.518;9.206;2023-03-15T10:55:59;97325.38;;;6.68;46.02
32251;BME280;41295;48.518;9.206;2023-03-15T10:58:18;97318.72;;;6.56;47.44
32251;BME280;41295;48.518;9.206;2023-03-15T11:00:26;97314.28;;;6.61;46.16
32251;BME280;41295;48.518;9.206;2023-03-15T11:02:29;97308.25;;;6.63;45.84
32251;BME280;41295;48.518;9.206;2023-03-15T11:04:33;97311.69;;;6.61;47.89
32251;BME280;41295;48.518;9.206;2023-03-15T11:06:40;97302.69;;;6.80;45.31